createdAt,value
2019-05-01T00:10:40.119Z,8.7
2019-05-01T00:26:01.664Z,8.5
2019-05-01T00:41:15.450Z,8.4
2019-05-01T00:56:29.299Z,8.2
2019-05-01T01:11:42.021Z,8.2
2019-05-01T01:26:55.397Z,8.2
2019-05-01T01:42:08.973Z,8.3
2019-05-01T01:57:22.561Z,8.4
2019-05-01T02:12:36.008Z,8.3
2019-05-01T02:27:43.372Z,8.1
2019-05-01T02:43:02.967Z,8.2
2019-05-01T02:58:16.467Z,8.3
2019-05-01T03:13:30.013Z,8.4
2019-05-01T03:28:43.656Z,8.6
2019-05-01T03:43:57.341Z,8.6
2019-05-01T03:59:10.946Z,8.6
2019-05-01T04:14:24.642Z,8.7
2019-05-01T04:29:38.359Z,8.9
2019-05-01T04:44:47.507Z,9.1
2019-05-01T05:00:06.180Z,9.3
2019-05-01T05:15:19.945Z,9.3
2019-05-01T05:30:33.954Z,9.6
2019-05-01T05:45:37.078Z,9.9
2019-05-01T06:01:02.206Z,10.1
2019-05-01T06:16:17.389Z,10.3
2019-05-01T06:31:30.811Z,10.6
2019-05-01T06:46:45.308Z,10.6
2019-05-01T07:01:58.242Z,10.8
2019-05-01T07:17:14.775Z,11
2019-05-01T07:32:28.983Z,11.4
2019-05-01T07:47:43.860Z,12.1
2019-05-01T08:02:49.462Z,12.3
2019-05-01T08:18:14.126Z,12.2
2019-05-01T08:33:29.182Z,12.5
2019-05-01T08:48:44.570Z,13
2019-05-01T09:04:12.245Z,13.8
2019-05-01T09:19:16.170Z,14.4
2019-05-01T09:34:32.007Z,14.4
2019-05-01T09:49:48.645Z,13.7
2019-05-01T10:05:06.621Z,14.7
2019-05-01T10:20:12.282Z,15
2019-05-01T10:35:42.690Z,15.4
2019-05-01T10:50:52.766Z,16.6
2019-05-01T11:06:09.807Z,17.4
2019-05-01T11:21:12.054Z,17.4
2019-05-01T11:36:42.871Z,17.9
2019-05-01T11:52:02.045Z,18.6
2019-05-01T12:07:20.049Z,18.7
2019-05-01T12:22:37.482Z,17.4
2019-05-01T12:37:44.971Z,18.4
2019-05-01T12:53:13.412Z,19.7
2019-05-01T13:08:30.781Z,18.9
2019-05-01T13:23:48.807Z,19.3
2019-05-01T13:39:07.101Z,19.7
2019-05-01T13:54:20.410Z,19
2019-05-01T14:09:42.953Z,18.8
2019-05-01T14:25:01.205Z,19.6
2019-05-01T14:40:19.318Z,20
2019-05-01T14:55:24.582Z,20.4
2019-05-01T15:10:56.522Z,20.5
2019-05-01T15:26:16.370Z,20.6
2019-05-01T15:41:34.796Z,20.9
2019-05-01T15:56:53.899Z,20.6
2019-05-01T16:12:01.988Z,20.1
2019-05-01T16:27:31.436Z,20
2019-05-01T16:42:50.080Z,19.6
2019-05-01T16:58:08.574Z,19.1
2019-05-01T17:13:26.917Z,18.9
2019-05-01T17:28:36.271Z,18.9
2019-05-01T17:44:03.401Z,18.5
2019-05-01T17:59:21.150Z,17.9
2019-05-01T18:14:38.562Z,17.5
2019-05-01T18:29:55.511Z,16.8
2019-05-01T18:45:09.461Z,16.2
2019-05-01T19:00:28.755Z,15.7
2019-05-01T19:15:45.127Z,15.3
2019-05-01T19:31:01.332Z,15
2019-05-01T19:46:04.133Z,14.8
2019-05-01T20:01:33.466Z,14.9
2019-05-01T20:16:50.912Z,14.4
2019-05-01T20:32:05.210Z,14.2
2019-05-01T20:47:34.309Z,14
2019-05-01T21:03:31.173Z,13.9
2019-05-01T21:18:49.504Z,13.8
2019-05-01T21:34:05.115Z,13.7
2019-05-01T21:49:22.452Z,13.5
2019-05-01T22:04:27.771Z,13.9
2019-05-01T22:17:51.380Z,13.8
2019-05-01T22:33:12.869Z,13.2
2019-05-01T22:48:28.199Z,13
2019-05-01T23:03:43.396Z,12.8
2019-05-01T23:18:46.952Z,12.5
2019-05-01T23:34:13.599Z,12.4
2019-05-01T23:49:28.655Z,12.3
